Wofford Heights, California
Current Conditions -  °F | °C
As of 9:54 AM on Friday 24 Oct 2014 (Local Time) from KBFL Reporting Station
Clear Clear  
Wind Chill: 66°   Ceiling: Unl
Heat Index: 66°   Visibility: 8mi
Dew Point: 45°   Wind: 5mph
Humidity: 47%   Direction: 160°SSE
Pressure: 30"   Gusts: NA
Location:  35.71°N, 118.47°W
Report Text: KBFL 241654Z 16004KT 8SM CLR 19/07 A3000 RMK AO2 SLP154 T01890072
Loading
Personal Weather Stations






























Interactive Weather Map
Tropical Storm Tracking
New forecast layout! Learn more

10-Day Weather Forecast

Advertisements
Track Severe Weather on mobile